sensor_id;sensor_type;location;lat;lon;timestamp;temperature;humidity
3298;DHT22;1661;53.572;10.174;2022-09-03T00:00:21;16.70;63.70
3298;DHT22;1661;53.572;10.174;2022-09-03T00:02:58;16.70;63.80
3298;DHT22;1661;53.572;10.174;2022-09-03T00:05:30;16.70;63.70
3298;DHT22;1661;53.572;10.174;2022-09-03T00:08:03;16.60;64.00
3298;DHT22;1661;53.572;10.174;2022-09-03T00:10:38;16.60;64.10
3298;DHT22;1661;53.572;10.174;2022-09-03T00:13:08;16.60;64.10
3298;DHT22;1661;53.572;10.174;2022-09-03T00:15:35;16.60;64.10
3298;DHT22;1661;53.572;10.174;2022-09-03T00:18:07;16.60;64.00
3298;DHT22;1661;53.572;10.174;2022-09-03T00:20:38;16.50;64.30
3298;DHT22;1661;53.572;10.174;2022-09-03T00:23:09;16.50;64.40
3298;DHT22;1661;53.572;10.174;2022-09-03T00:25:41;16.50;64.30
3298;DHT22;1661;53.572;10.174;2022-09-03T00:28:13;16.50;64.40
3298;DHT22;1661;53.572;10.174;2022-09-03T00:30:41;16.50;64.50
3298;DHT22;1661;53.572;10.174;2022-09-03T00:33:17;16.40;64.60
3298;DHT22;1661;53.572;10.174;2022-09-03T00:35:48;16.40;64.80
3298;DHT22;1661;53.572;10.174;2022-09-03T00:38:18;16.30;64.80
3298;DHT22;1661;53.572;10.174;2022-09-03T00:41:03;16.30;64.90
3298;DHT22;1661;53.572;10.174;2022-09-03T00:43:45;16.20;65.00
3298;DHT22;1661;53.572;10.174;2022-09-03T00:46:23;16.20;65.10
3298;DHT22;1661;53.572;10.174;2022-09-03T00:49:06;16.20;65.30
3298;DHT22;1661;53.572;10.174;2022-09-03T00:51:40;16.20;65.30
3298;DHT22;1661;53.572;10.174;2022-09-03T00:54:16;16.20;65.10
3298;DHT22;1661;53.572;10.174;2022-09-03T00:56:52;16.10;65.50
3298;DHT22;1661;53.572;10.174;2022-09-03T00:59:30;16.10;65.50
3298;DHT22;1661;53.572;10.174;2022-09-03T01:02:06;16.10;65.60
3298;DHT22;1661;53.572;10.174;2022-09-03T01:04:50;16.10;65.40
3298;DHT22;1661;53.572;10.174;2022-09-03T01:07:30;16.10;65.40
3298;DHT22;1661;53.572;10.174;2022-09-03T01:10:07;16.10;65.50
3298;DHT22;1661;53.572;10.174;2022-09-03T01:12:45;16.10;65.30
3298;DHT22;1661;53.572;10.174;2022-09-03T01:15:17;16.10;65.60
3298;DHT22;1661;53.572;10.174;2022-09-03T01:17:54;16.00;65.70
3298;DHT22;1661;53.572;10.174;2022-09-03T01:20:32;16.00;65.70
3298;DHT22;1661;53.572;10.174;2022-09-03T01:23:30;16.00;65.60
3298;DHT22;1661;53.572;10.174;2022-09-03T01:26:15;16.00;65.70
3298;DHT22;1661;53.572;10.174;2022-09-03T01:28:56;15.90;65.70
3298;DHT22;1661;53.572;10.174;2022-09-03T01:31:32;15.90;65.90
3298;DHT22;1661;53.572;10.174;2022-09-03T01:34:10;15.90;65.90
3298;DHT22;1661;53.572;10.174;2022-09-03T01:36:46;15.80;66.10
3298;DHT22;1661;53.572;10.174;2022-09-03T01:39:21;15.80;66.00
3298;DHT22;1661;53.572;10.174;2022-09-03T01:41:58;15.70;66.30
3298;DHT22;1661;53.572;10.174;2022-09-03T01:48:11;15.70;66.30
3298;DHT22;1661;53.572;10.174;2022-09-03T01:50:45;15.70;66.60
3298;DHT22;1661;53.572;10.174;2022-09-03T01:53:26;15.60;66.50
3298;DHT22;1661;53.572;10.174;2022-09-03T01:56:07;15.60;66.70
3298;DHT22;1661;53.572;10.174;2022-09-03T01:58:41;15.60;66.60
3298;DHT22;1661;53.572;10.174;2022-09-03T02:01:16;15.60;66.70
3298;DHT22;1661;53.572;10.174;2022-09-03T02:03:46;15.50;66.90
3298;DHT22;1661;53.572;10.174;2022-09-03T02:06:14;15.50;66.90
3298;DHT22;1661;53.572;10.174;2022-09-03T02:08:41;15.50;66.70
3298;DHT22;1661;53.572;10.174;2022-09-03T02:11:08;15.50;67.10
3298;DHT22;1661;53.572;10.174;2022-09-03T02:13:37;15.50;67.00
3298;DHT22;1661;53.572;10.174;2022-09-03T02:16:11;15.50;66.80
3298;DHT22;1661;53.572;10.174;2022-09-03T02:18:42;15.50;66.90
3298;DHT22;1661;53.572;10.174;2022-09-03T02:21:10;15.50;66.60
3298;DHT22;1661;53.572;10.174;2022-09-03T02:23:39;15.50;66.60
3298;DHT22;1661;53.572;10.174;2022-09-03T02:26:06;15.50;66.70
3298;DHT22;1661;53.572;10.174;2022-09-03T02:28:34;15.50;66.90
3298;DHT22;1661;53.572;10.174;2022-09-03T02:31:00;15.50;66.90
3298;DHT22;1661;53.572;10.174;2022-09-03T02:33:35;15.50;66.90
3298;DHT22;1661;53.572;10.174;2022-09-03T02:36:04;15.50;66.80
3298;DHT22;1661;53.572;10.174;2022-09-03T02:38:31;15.50;66.60
3298;DHT22;1661;53.572;10.174;2022-09-03T02:40:58;15.50;66.60
3298;DHT22;1661;53.572;10.174;2022-09-03T02:43:29;15.50;66.30
3298;DHT22;1661;53.572;10.174;2022-09-03T02:46:00;15.50;66.70
3298;DHT22;1661;53.572;10.174;2022-09-03T02:48:29;15.50;66.60
3298;DHT22;1661;53.572;10.174;2022-09-03T02:50:56;15.40;66.90
3298;DHT22;1661;53.572;10.174;2022-09-03T02:53:22;15.40;66.90
3298;DHT22;1661;53.572;10.174;2022-09-03T02:55:49;15.40;66.80
3298;DHT22;1661;53.572;10.174;2022-09-03T02:58:16;15.40;66.90
3298;DHT22;1661;53.572;10.174;2022-09-03T03:00:43;15.40;66.90
3298;DHT22;1661;53.572;10.174;2022-09-03T03:03:09;15.40;66.70
3298;DHT22;1661;53.572;10.174;2022-09-03T03:05:42;15.40;66.60
3298;DHT22;1661;53.572;10.174;2022-09-03T03:08:09;15.40;66.90
3298;DHT22;1661;53.572;10.174;2022-09-03T03:10:36;15.40;66.60
3298;DHT22;1661;53.572;10.174;2022-09-03T03:13:03;15.40;66.40
3298;DHT22;1661;53.572;10.174;2022-09-03T03:15:30;15.40;66.40
3298;DHT22;1661;53.572;10.174;2022-09-03T03:17:57;15.40;66.60
3298;DHT22;1661;53.572;10.174;2022-09-03T03:20:24;15.40;66.80
3298;DHT22;1661;53.572;10.174;2022-09-03T03:22:52;15.30;66.80
3298;DHT22;1661;53.572;10.174;2022-09-03T03:25:19;15.30;66.60
3298;DHT22;1661;53.572;10.174;2022-09-03T03:27:45;15.30;66.90
3298;DHT22;1661;53.572;10.174;2022-09-03T03:30:13;15.20;67.00
3298;DHT22;1661;53.572;10.174;2022-09-03T03:32:39;15.20;67.00
3298;DHT22;1661;53.572;10.174;2022-09-03T03:35:07;15.20;67.10
3298;DHT22;1661;53.572;10.174;2022-09-03T03:37:36;15.20;66.80
3298;DHT22;1661;53.572;10.174;2022-09-03T03:40:05;15.20;67.00
3298;DHT22;1661;53.572;10.174;2022-09-03T03:42:32;15.20;67.00
3298;DHT22;1661;53.572;10.174;2022-09-03T03:44:59;15.20;66.60
3298;DHT22;1661;53.572;10.174;2022-09-03T03:47:27;15.10;66.90
3298;DHT22;1661;53.572;10.174;2022-09-03T03:49:54;15.10;67.10
3298;DHT22;1661;53.572;10.174;2022-09-03T03:52:21;15.10;67.30
3298;DHT22;1661;53.572;10.174;2022-09-03T03:54:47;15.10;67.00
3298;DHT22;1661;53.572;10.174;2022-09-03T03:57:16;15.00;67.10
3298;DHT22;1661;53.572;10.174;2022-09-03T03:59:43;15.00;67.10
3298;DHT22;1661;53.572;10.174;2022-09-03T04:02:10;15.00;67.40
3298;DHT22;1661;53.572;10.174;2022-09-03T04:04:37;14.90;67.40
3298;DHT22;1661;53.572;10.174;2022-09-03T04:07:04;14.90;67.40
3298;DHT22;1661;53.572;10.174;2022-09-03T04:09:31;14.90;67.20
3298;DHT22;1661;53.572;10.174;2022-09-03T04:11:58;14.90;67.50
3298;DHT22;1661;53.572;10.174;2022-09-03T04:14:26;14.80;67.70
3298;DHT22;1661;53.572;10.174;2022-09-03T04:16:53;14.80;67.80
3298;DHT22;1661;53.572;10.174;2022-09-03T04:19:20;14.80;67.80
3298;DHT22;1661;53.572;10.174;2022-09-03T04:21:48;14.70;68.00
3298;DHT22;1661;53.572;10.174;2022-09-03T04:24:14;14.70;67.90
3298;DHT22;1661;53.572;10.174;2022-09-03T04:26:41;14.70;68.20
3298;DHT22;1661;53.572;10.174;2022-09-03T04:29:09;14.60;68.20
3298;DHT22;1661;53.572;10.174;2022-09-03T04:31:37;14.60;68.10
3298;DHT22;1661;53.572;10.174;2022-09-03T04:34:24;14.60;68.30
3298;DHT22;1661;53.572;10.174;2022-09-03T04:36:51;14.50;68.90
3298;DHT22;1661;53.572;10.174;2022-09-03T04:39:17;14.50;68.70
3298;DHT22;1661;53.572;10.174;2022-09-03T04:41:44;14.50;68.70
3298;DHT22;1661;53.572;10.174;2022-09-03T04:44:11;14.40;68.90
3298;DHT22;1661;53.572;10.174;2022-09-03T04:46:39;14.40;69.10
3298;DHT22;1661;53.572;10.174;2022-09-03T04:49:06;14.40;69.10
3298;DHT22;1661;53.572;10.174;2022-09-03T04:51:34;14.40;68.90
3298;DHT22;1661;53.572;10.174;2022-09-03T04:54:03;14.40;68.70
3298;DHT22;1661;53.572;10.174;2022-09-03T04:56:33;14.40;68.80
3298;DHT22;1661;53.572;10.174;2022-09-03T04:59:02;14.40;68.90
3298;DHT22;1661;53.572;10.174;2022-09-03T05:01:30;14.40;68.90
3298;DHT22;1661;53.572;10.174;2022-09-03T05:03:59;14.40;68.60
3298;DHT22;1661;53.572;10.174;2022-09-03T05:06:28;14.40;68.40
3298;DHT22;1661;53.572;10.174;2022-09-03T05:08:56;14.50;68.20
3298;DHT22;1661;53.572;10.174;2022-09-03T05:11:24;14.50;68.20
3298;DHT22;1661;53.572;10.174;2022-09-03T05:13:54;14.50;68.00
3298;DHT22;1661;53.572;10.174;2022-09-03T05:16:22;14.60;67.70
3298;DHT22;1661;53.572;10.174;2022-09-03T05:18:51;14.60;67.60
3298;DHT22;1661;53.572;10.174;2022-09-03T05:21:20;14.60;67.90
3298;DHT22;1661;53.572;10.174;2022-09-03T05:23:49;14.60;67.50
3298;DHT22;1661;53.572;10.174;2022-09-03T05:26:18;14.60;67.80
3298;DHT22;1661;53.572;10.174;2022-09-03T05:28:45;14.60;67.80
3298;DHT22;1661;53.572;10.174;2022-09-03T05:31:13;14.60;68.30
3298;DHT22;1661;53.572;10.174;2022-09-03T05:33:42;14.60;68.30
3298;DHT22;1661;53.572;10.174;2022-09-03T05:36:10;14.60;68.40
3298;DHT22;1661;53.572;10.174;2022-09-03T05:38:39;14.70;68.30
3298;DHT22;1661;53.572;10.174;2022-09-03T05:41:08;14.70;68.40
3298;DHT22;1661;53.572;10.174;2022-09-03T05:43:35;14.70;68.40
3298;DHT22;1661;53.572;10.174;2022-09-03T05:46:03;14.80;68.10
3298;DHT22;1661;53.572;10.174;2022-09-03T05:48:31;14.80;68.00
3298;DHT22;1661;53.572;10.174;2022-09-03T05:50:59;14.90;68.00
3298;DHT22;1661;53.572;10.174;2022-09-03T05:53:26;15.00;67.90
3298;DHT22;1661;53.572;10.174;2022-09-03T05:55:58;15.10;67.60
3298;DHT22;1661;53.572;10.174;2022-09-03T05:58:29;15.10;67.30
3298;DHT22;1661;53.572;10.174;2022-09-03T06:00:56;15.20;67.30
3298;DHT22;1661;53.572;10.174;2022-09-03T06:03:23;15.20;66.80
3298;DHT22;1661;53.572;10.174;2022-09-03T06:05:50;15.30;67.00
3298;DHT22;1661;53.572;10.174;2022-09-03T06:08:17;15.40;66.90
3298;DHT22;1661;53.572;10.174;2022-09-03T06:10:44;15.50;66.40
3298;DHT22;1661;53.572;10.174;2022-09-03T06:13:12;15.50;66.20
3298;DHT22;1661;53.572;10.174;2022-09-03T06:15:39;15.60;65.90
3298;DHT22;1661;53.572;10.174;2022-09-03T06:18:06;15.70;65.70
3298;DHT22;1661;53.572;10.174;2022-09-03T06:20:32;15.80;65.70
3298;DHT22;1661;53.572;10.174;2022-09-03T06:22:59;15.90;65.70
3298;DHT22;1661;53.572;10.174;2022-09-03T06:25:26;15.90;65.10
3298;DHT22;1661;53.572;10.174;2022-09-03T06:27:53;16.00;65.10
3298;DHT22;1661;53.572;10.174;2022-09-03T06:30:21;16.20;64.90
3298;DHT22;1661;53.572;10.174;2022-09-03T06:32:49;16.30;64.20
3298;DHT22;1661;53.572;10.174;2022-09-03T06:35:16;16.30;64.00
3298;DHT22;1661;53.572;10.174;2022-09-03T06:37:43;16.40;63.90
3298;DHT22;1661;53.572;10.174;2022-09-03T06:40:10;16.50;63.30
3298;DHT22;1661;53.572;10.174;2022-09-03T06:42:38;16.60;63.60
3298;DHT22;1661;53.572;10.174;2022-09-03T06:45:06;16.70;63.20
3298;DHT22;1661;53.572;10.174;2022-09-03T06:47:34;16.80;62.40
3298;DHT22;1661;53.572;10.174;2022-09-03T06:50:01;16.90;62.80
3298;DHT22;1661;53.572;10.174;2022-09-03T06:52:28;17.00;62.20
3298;DHT22;1661;53.572;10.174;2022-09-03T06:54:55;17.00;62.10
3298;DHT22;1661;53.572;10.174;2022-09-03T06:57:22;17.10;62.30
3298;DHT22;1661;53.572;10.174;2022-09-03T06:59:49;17.20;61.60
3298;DHT22;1661;53.572;10.174;2022-09-03T07:02:16;17.30;61.60
3298;DHT22;1661;53.572;10.174;2022-09-03T07:04:44;17.40;62.00
3298;DHT22;1661;53.572;10.174;2022-09-03T07:07:11;17.60;61.20
3298;DHT22;1661;53.572;10.174;2022-09-03T07:09:38;17.70;61.10
3298;DHT22;1661;53.572;10.174;2022-09-03T07:12:05;17.80;60.80
3298;DHT22;1661;53.572;10.174;2022-09-03T07:14:32;18.00;60.50
3298;DHT22;1661;53.572;10.174;2022-09-03T07:16:59;18.20;60.20
3298;DHT22;1661;53.572;10.174;2022-09-03T07:19:26;18.40;60.30
3298;DHT22;1661;53.572;10.174;2022-09-03T07:21:54;18.70;59.80
3298;DHT22;1661;53.572;10.174;2022-09-03T07:24:21;18.90;59.30
3298;DHT22;1661;53.572;10.174;2022-09-03T07:26:48;19.00;57.90
3298;DHT22;1661;53.572;10.174;2022-09-03T07:29:14;19.10;58.10
3298;DHT22;1661;53.572;10.174;2022-09-03T07:31:44;19.20;58.10
3298;DHT22;1661;53.572;10.174;2022-09-03T07:34:12;19.30;57.90
3298;DHT22;1661;53.572;10.174;2022-09-03T07:36:41;19.50;57.30
3298;DHT22;1661;53.572;10.174;2022-09-03T07:39:10;19.70;57.60
3298;DHT22;1661;53.572;10.174;2022-09-03T07:41:37;19.90;57.30
3298;DHT22;1661;53.572;10.174;2022-09-03T07:44:07;20.00;56.50
3298;DHT22;1661;53.572;10.174;2022-09-03T07:46:36;20.20;56.30
3298;DHT22;1661;53.572;10.174;2022-09-03T07:49:04;20.30;56.40
3298;DHT22;1661;53.572;10.174;2022-09-03T07:51:33;20.50;55.40
3298;DHT22;1661;53.572;10.174;2022-09-03T07:54:02;20.60;55.10
3298;DHT22;1661;53.572;10.174;2022-09-03T07:56:34;20.80;54.30
3298;DHT22;1661;53.572;10.174;2022-09-03T07:59:01;20.90;54.40
3298;DHT22;1661;53.572;10.174;2022-09-03T08:01:29;21.10;54.60
3298;DHT22;1661;53.572;10.174;2022-09-03T08:03:57;21.20;52.80
3298;DHT22;1661;53.572;10.174;2022-09-03T08:06:25;21.30;53.20
3298;DHT22;1661;53.572;10.174;2022-09-03T08:08:56;21.50;52.90
3298;DHT22;1661;53.572;10.174;2022-09-03T08:11:25;21.70;52.90
3298;DHT22;1661;53.572;10.174;2022-09-03T08:13:58;21.90;52.30
3298;DHT22;1661;53.572;10.174;2022-09-03T08:16:26;22.10;51.70
3298;DHT22;1661;53.572;10.174;2022-09-03T08:18:54;22.30;52.40
3298;DHT22;1661;53.572;10.174;2022-09-03T08:21:21;22.60;51.40
3298;DHT22;1661;53.572;10.174;2022-09-03T08:23:49;22.70;50.90
3298;DHT22;1661;53.572;10.174;2022-09-03T08:26:19;22.80;50.50
3298;DHT22;1661;53.572;10.174;2022-09-03T08:28:46;23.00;49.80
3298;DHT22;1661;53.572;10.174;2022-09-03T08:31:16;23.10;49.60
3298;DHT22;1661;53.572;10.174;2022-09-03T08:33:45;23.30;49.30
3298;DHT22;1661;53.572;10.174;2022-09-03T08:36:14;23.30;48.70
3298;DHT22;1661;53.572;10.174;2022-09-03T08:38:42;23.50;48.90
3298;DHT22;1661;53.572;10.174;2022-09-03T08:41:12;23.60;48.40
3298;DHT22;1661;53.572;10.174;2022-09-03T08:43:57;23.60;47.90
3298;DHT22;1661;53.572;10.174;2022-09-03T08:46:36;23.70;47.90
3298;DHT22;1661;53.572;10.174;2022-09-03T08:49:06;23.80;47.30
3298;DHT22;1661;53.572;10.174;2022-09-03T08:51:37;24.00;47.00
3298;DHT22;1661;53.572;10.174;2022-09-03T08:54:06;24.20;47.60
3298;DHT22;1661;53.572;10.174;2022-09-03T08:56:37;24.30;45.50
3298;DHT22;1661;53.572;10.174;2022-09-03T08:59:05;24.20;46.00
3298;DHT22;1661;53.572;10.174;2022-09-03T09:01:41;24.20;46.10
3298;DHT22;1661;53.572;10.174;2022-09-03T09:04:15;24.10;45.60
3298;DHT22;1661;53.572;10.174;2022-09-03T09:06:51;24.10;46.40
3298;DHT22;1661;53.572;10.174;2022-09-03T09:09:26;24.20;46.40
3298;DHT22;1661;53.572;10.174;2022-09-03T09:12:00;24.00;46.80
3298;DHT22;1661;53.572;10.174;2022-09-03T09:14:35;23.90;47.00
3298;DHT22;1661;53.572;10.174;2022-09-03T09:17:16;23.90;47.50
3298;DHT22;1661;53.572;10.174;2022-09-03T09:19:52;23.90;47.20
3298;DHT22;1661;53.572;10.174;2022-09-03T09:22:26;24.20;47.30
3298;DHT22;1661;53.572;10.174;2022-09-03T09:24:55;24.50;46.30
3298;DHT22;1661;53.572;10.174;2022-09-03T09:27:23;24.70;46.00
3298;DHT22;1661;53.572;10.174;2022-09-03T09:29:51;24.80;46.10
3298;DHT22;1661;53.572;10.174;2022-09-03T09:32:19;25.00;44.50
3298;DHT22;1661;53.572;10.174;2022-09-03T09:34:46;25.10;44.90
3298;DHT22;1661;53.572;10.174;2022-09-03T09:37:14;25.20;45.20
3298;DHT22;1661;53.572;10.174;2022-09-03T09:39:53;25.20;44.50
3298;DHT22;1661;53.572;10.174;2022-09-03T09:42:21;25.30;44.30
3298;DHT22;1661;53.572;10.174;2022-09-03T09:44:48;25.40;44.10
3298;DHT22;1661;53.572;10.174;2022-09-03T09:47:23;25.50;43.20
3298;DHT22;1661;53.572;10.174;2022-09-03T09:49:52;25.60;44.10
3298;DHT22;1661;53.572;10.174;2022-09-03T09:52:21;25.80;43.40
3298;DHT22;1661;53.572;10.174;2022-09-03T09:54:51;26.00;42.60
3298;DHT22;1661;53.572;10.174;2022-09-03T09:57:22;25.90;40.90
3298;DHT22;1661;53.572;10.174;2022-09-03T09:59:49;25.80;41.60
3298;DHT22;1661;53.572;10.174;2022-09-03T10:02:21;25.90;42.90
3298;DHT22;1661;53.572;10.174;2022-09-03T10:04:54;26.10;42.10
3298;DHT22;1661;53.572;10.174;2022-09-03T10:07:25;26.40;42.60
3298;DHT22;1661;53.572;10.174;2022-09-03T10:09:58;26.50;39.80
3298;DHT22;1661;53.572;10.174;2022-09-03T10:12:30;26.60;40.00
3298;DHT22;1661;53.572;10.174;2022-09-03T10:15:06;26.70;38.40
3298;DHT22;1661;53.572;10.174;2022-09-03T10:17:41;26.70;38.20
3298;DHT22;1661;53.572;10.174;2022-09-03T10:20:14;26.70;37.80
3298;DHT22;1661;53.572;10.174;2022-09-03T10:23:00;26.70;39.80
3298;DHT22;1661;53.572;10.174;2022-09-03T10:25:32;26.60;39.40
3298;DHT22;1661;53.572;10.174;2022-09-03T10:28:03;26.80;39.30
3298;DHT22;1661;53.572;10.174;2022-09-03T10:30:37;27.00;39.90
3298;DHT22;1661;53.572;10.174;2022-09-03T10:33:15;27.00;38.40
3298;DHT22;1661;53.572;10.174;2022-09-03T10:35:51;27.00;38.30
3298;DHT22;1661;53.572;10.174;2022-09-03T10:38:25;27.00;38.30
3298;DHT22;1661;53.572;10.174;2022-09-03T10:40:58;27.20;37.70
3298;DHT22;1661;53.572;10.174;2022-09-03T10:43:45;27.30;37.60
3298;DHT22;1661;53.572;10.174;2022-09-03T10:46:24;27.40;36.80
3298;DHT22;1661;53.572;10.174;2022-09-03T10:49:14;27.60;37.00
3298;DHT22;1661;53.572;10.174;2022-09-03T10:51:51;27.80;36.90
3298;DHT22;1661;53.572;10.174;2022-09-03T10:54:32;27.80;36.80
3298;DHT22;1661;53.572;10.174;2022-09-03T10:57:08;27.70;38.50
3298;DHT22;1661;53.572;10.174;2022-09-03T10:59:48;27.70;37.70
3298;DHT22;1661;53.572;10.174;2022-09-03T11:02:45;27.60;36.40
3298;DHT22;1661;53.572;10.174;2022-09-03T11:05:19;27.30;37.10
3298;DHT22;1661;53.572;10.174;2022-09-03T11:07:51;27.00;37.30
3298;DHT22;1661;53.572;10.174;2022-09-03T11:10:22;26.90;37.00
3298;DHT22;1661;53.572;10.174;2022-09-03T11:12:56;26.70;37.90
3298;DHT22;1661;53.572;10.174;2022-09-03T11:15:30;26.70;38.30
3298;DHT22;1661;53.572;10.174;2022-09-03T11:18:02;26.70;37.40
3298;DHT22;1661;53.572;10.174;2022-09-03T11:20:30;26.60;36.30
3298;DHT22;1661;53.572;10.174;2022-09-03T11:23:02;26.80;36.60
3298;DHT22;1661;53.572;10.174;2022-09-03T11:25:31;26.90;38.20
3298;DHT22;1661;53.572;10.174;2022-09-03T11:28:08;27.00;36.10
3298;DHT22;1661;53.572;10.174;2022-09-03T11:30:48;26.90;36.60
3298;DHT22;1661;53.572;10.174;2022-09-03T11:33:21;26.90;36.50
3298;DHT22;1661;53.572;10.174;2022-09-03T11:35:55;26.80;35.30
3298;DHT22;1661;53.572;10.174;2022-09-03T11:38:26;26.90;37.40
3298;DHT22;1661;53.572;10.174;2022-09-03T11:40:59;27.20;36.70
3298;DHT22;1661;53.572;10.174;2022-09-03T11:43:28;27.50;36.20
3298;DHT22;1661;53.572;10.174;2022-09-03T11:46:04;27.60;35.80
3298;DHT22;1661;53.572;10.174;2022-09-03T11:48:38;27.40;35.50
3298;DHT22;1661;53.572;10.174;2022-09-03T11:51:18;27.40;35.10
3298;DHT22;1661;53.572;10.174;2022-09-03T11:53:54;27.30;33.50
3298;DHT22;1661;53.572;10.174;2022-09-03T11:56:21;26.90;33.90
3298;DHT22;1661;53.572;10.174;2022-09-03T11:59:00;26.90;34.60
3298;DHT22;1661;53.572;10.174;2022-09-03T12:01:28;26.90;35.80
3298;DHT22;1661;53.572;10.174;2022-09-03T12:03:58;26.80;35.20
3298;DHT22;1661;53.572;10.174;2022-09-03T12:06:48;26.70;35.90
3298;DHT22;1661;53.572;10.174;2022-09-03T12:09:48;26.60;35.70
3298;DHT22;1661;53.572;10.174;2022-09-03T12:12:31;26.30;36.00
3298;DHT22;1661;53.572;10.174;2022-09-03T12:15:06;26.10;36.80
3298;DHT22;1661;53.572;10.174;2022-09-03T12:17:41;26.20;36.20
3298;DHT22;1661;53.572;10.174;2022-09-03T12:20:11;26.30;36.40
3298;DHT22;1661;53.572;10.174;2022-09-03T12:22:39;26.40;35.30
3298;DHT22;1661;53.572;10.174;2022-09-03T12:25:12;26.60;36.20
3298;DHT22;1661;53.572;10.174;2022-09-03T12:27:40;26.80;36.30
3298;DHT22;1661;53.572;10.174;2022-09-03T12:30:16;26.70;35.60
3298;DHT22;1661;53.572;10.174;2022-09-03T12:32:43;26.50;35.50
3298;DHT22;1661;53.572;10.174;2022-09-03T12:35:12;26.40;36.10
3298;DHT22;1661;53.572;10.174;2022-09-03T12:37:41;26.20;36.40
3298;DHT22;1661;53.572;10.174;2022-09-03T12:40:18;26.10;35.90
3298;DHT22;1661;53.572;10.174;2022-09-03T12:42:46;26.20;36.90
3298;DHT22;1661;53.572;10.174;2022-09-03T12:45:14;26.40;35.80
3298;DHT22;1661;53.572;10.174;2022-09-03T12:47:42;26.40;36.40
3298;DHT22;1661;53.572;10.174;2022-09-03T12:50:11;26.50;36.40
3298;DHT22;1661;53.572;10.174;2022-09-03T12:52:40;26.80;36.50
3298;DHT22;1661;53.572;10.174;2022-09-03T12:55:23;27.00;35.60
3298;DHT22;1661;53.572;10.174;2022-09-03T12:57:54;27.20;35.60
3298;DHT22;1661;53.572;10.174;2022-09-03T13:00:22;27.20;35.80
3298;DHT22;1661;53.572;10.174;2022-09-03T13:02:54;27.00;35.10
3298;DHT22;1661;53.572;10.174;2022-09-03T13:05:29;26.80;34.50
3298;DHT22;1661;53.572;10.174;2022-09-03T13:07:59;26.70;35.50
3298;DHT22;1661;53.572;10.174;2022-09-03T13:10:30;26.50;35.60
3298;DHT22;1661;53.572;10.174;2022-09-03T13:12:58;26.40;35.00
3298;DHT22;1661;53.572;10.174;2022-09-03T13:15:27;26.30;34.90
3298;DHT22;1661;53.572;10.174;2022-09-03T13:18:05;26.40;35.10
3298;DHT22;1661;53.572;10.174;2022-09-03T13:20:42;26.50;35.50
3298;DHT22;1661;53.572;10.174;2022-09-03T13:23:27;26.60;36.60
3298;DHT22;1661;53.572;10.174;2022-09-03T13:26:06;26.70;35.50
3298;DHT22;1661;53.572;10.174;2022-09-03T13:28:45;26.70;36.60
3298;DHT22;1661;53.572;10.174;2022-09-03T13:31:24;26.70;36.20
3298;DHT22;1661;53.572;10.174;2022-09-03T13:33:56;26.40;35.10
3298;DHT22;1661;53.572;10.174;2022-09-03T13:36:29;26.10;36.40
3298;DHT22;1661;53.572;10.174;2022-09-03T13:38:59;25.90;36.10
3298;DHT22;1661;53.572;10.174;2022-09-03T13:41:36;25.50;35.90
3298;DHT22;1661;53.572;10.174;2022-09-03T13:44:08;25.30;37.20
3298;DHT22;1661;53.572;10.174;2022-09-03T13:46:42;25.00;36.60
3298;DHT22;1661;53.572;10.174;2022-09-03T13:49:20;24.90;37.80
3298;DHT22;1661;53.572;10.174;2022-09-03T13:52:10;25.20;39.50
3298;DHT22;1661;53.572;10.174;2022-09-03T13:54:41;25.30;39.40
3298;DHT22;1661;53.572;10.174;2022-09-03T13:57:24;25.40;38.30
3298;DHT22;1661;53.572;10.174;2022-09-03T13:59:57;25.30;37.90
3298;DHT22;1661;53.572;10.174;2022-09-03T14:02:30;25.10;37.00
3298;DHT22;1661;53.572;10.174;2022-09-03T14:05:04;25.20;39.50
3298;DHT22;1661;53.572;10.174;2022-09-03T14:07:45;25.40;37.60
3298;DHT22;1661;53.572;10.174;2022-09-03T14:10:21;25.70;38.30
3298;DHT22;1661;53.572;10.174;2022-09-03T14:12:54;25.80;36.70
3298;DHT22;1661;53.572;10.174;2022-09-03T14:15:29;25.70;36.00
3298;DHT22;1661;53.572;10.174;2022-09-03T14:18:13;25.50;36.50
3298;DHT22;1661;53.572;10.174;2022-09-03T14:20:46;25.50;37.00
3298;DHT22;1661;53.572;10.174;2022-09-03T14:23:27;25.50;38.80
3298;DHT22;1661;53.572;10.174;2022-09-03T14:25:59;25.60;37.60
3298;DHT22;1661;53.572;10.174;2022-09-03T14:28:32;25.70;37.10
3298;DHT22;1661;53.572;10.174;2022-09-03T14:31:06;25.90;36.20
3298;DHT22;1661;53.572;10.174;2022-09-03T14:33:41;25.80;35.80
3298;DHT22;1661;53.572;10.174;2022-09-03T14:36:20;25.90;37.30
3298;DHT22;1661;53.572;10.174;2022-09-03T14:39:27;26.00;36.10
3298;DHT22;1661;53.572;10.174;2022-09-03T14:42:15;26.00;35.40
3298;DHT22;1661;53.572;10.174;2022-09-03T14:45:07;26.00;35.60
3298;DHT22;1661;53.572;10.174;2022-09-03T14:47:55;26.00;35.60
3298;DHT22;1661;53.572;10.174;2022-09-03T14:50:37;26.00;35.10
3298;DHT22;1661;53.572;10.174;2022-09-03T14:53:19;26.00;37.20
3298;DHT22;1661;53.572;10.174;2022-09-03T14:56:04;26.20;36.00
3298;DHT22;1661;53.572;10.174;2022-09-03T14:58:43;26.20;35.20
3298;DHT22;1661;53.572;10.174;2022-09-03T15:01:17;26.10;36.50
3298;DHT22;1661;53.572;10.174;2022-09-03T15:04:12;26.10;35.90
3298;DHT22;1661;53.572;10.174;2022-09-03T15:06:56;26.10;36.90
3298;DHT22;1661;53.572;10.174;2022-09-03T15:09:35;25.90;35.10
3298;DHT22;1661;53.572;10.174;2022-09-03T15:12:09;25.70;35.90
3298;DHT22;1661;53.572;10.174;2022-09-03T15:14:40;25.70;36.40
3298;DHT22;1661;53.572;10.174;2022-09-03T15:17:30;25.50;35.30
3298;DHT22;1661;53.572;10.174;2022-09-03T15:20:09;25.40;36.50
3298;DHT22;1661;53.572;10.174;2022-09-03T15:23:03;25.40;36.50
3298;DHT22;1661;53.572;10.174;2022-09-03T15:28:40;25.40;35.80
3298;DHT22;1661;53.572;10.174;2022-09-03T15:31:17;25.40;36.00
3298;DHT22;1661;53.572;10.174;2022-09-03T15:33:52;25.50;36.50
3298;DHT22;1661;53.572;10.174;2022-09-03T15:36:22;25.60;36.90
3298;DHT22;1661;53.572;10.174;2022-09-03T15:38:54;25.60;36.70
3298;DHT22;1661;53.572;10.174;2022-09-03T15:41:32;25.60;36.00
3298;DHT22;1661;53.572;10.174;2022-09-03T15:44:06;25.50;38.20
3298;DHT22;1661;53.572;10.174;2022-09-03T15:46:37;25.40;36.00
3298;DHT22;1661;53.572;10.174;2022-09-03T15:49:17;25.40;36.60
3298;DHT22;1661;53.572;10.174;2022-09-03T15:52:07;25.60;36.50
3298;DHT22;1661;53.572;10.174;2022-09-03T15:54:41;25.60;36.50
3298;DHT22;1661;53.572;10.174;2022-09-03T15:57:11;25.50;37.10
3298;DHT22;1661;53.572;10.174;2022-09-03T15:59:40;25.40;36.60
3298;DHT22;1661;53.572;10.174;2022-09-03T16:02:12;25.20;36.90
3298;DHT22;1661;53.572;10.174;2022-09-03T16:04:53;25.10;37.60
3298;DHT22;1661;53.572;10.174;2022-09-03T16:07:25;25.10;37.70
3298;DHT22;1661;53.572;10.174;2022-09-03T16:09:58;24.90;38.20
3298;DHT22;1661;53.572;10.174;2022-09-03T16:12:36;24.80;38.20
3298;DHT22;1661;53.572;10.174;2022-09-03T16:15:10;24.70;39.10
3298;DHT22;1661;53.572;10.174;2022-09-03T16:17:50;24.80;39.50
3298;DHT22;1661;53.572;10.174;2022-09-03T16:20:22;24.70;38.70
3298;DHT22;1661;53.572;10.174;2022-09-03T16:22:58;24.70;38.00